createdAt,value
2022-10-07T00:01:03.952Z,4.20
2022-10-07T00:03:32.221Z,4.13
2022-10-07T00:06:13.488Z,2.97
2022-10-07T00:08:44.409Z,3.30
2022-10-07T00:11:32.926Z,2.93
2022-10-07T00:14:03.603Z,3.10
2022-10-07T00:16:35.811Z,3.63
2022-10-07T00:19:07.601Z,3.77
2022-10-07T00:21:36.827Z,3.47
2022-10-07T00:24:05.396Z,3.33
2022-10-07T00:26:36.234Z,3.43
2022-10-07T00:29:05.837Z,3.50
2022-10-07T00:31:36.629Z,2.90
2022-10-07T00:34:05.339Z,3.00
2022-10-07T00:36:35.692Z,3.33
2022-10-07T00:39:07.373Z,3.07
2022-10-07T00:41:38.648Z,3.10
2022-10-07T00:44:31.825Z,3.33
2022-10-07T00:47:20.036Z,3.43
2022-10-07T00:50:29.744Z,3.50
2022-10-07T00:53:01.238Z,3.10
2022-10-07T00:55:32.889Z,2.90
2022-10-07T00:58:08.666Z,2.93
2022-10-07T01:00:38.907Z,3.03
2022-10-07T01:03:06.140Z,3.40
2022-10-07T01:05:33.119Z,3.37
2022-10-07T01:08:01.103Z,3.57
2022-10-07T01:10:45.647Z,3.37
2022-10-07T01:13:59.254Z,3.03
2022-10-07T01:16:45.871Z,3.13
2022-10-07T01:20:15.352Z,3.03
2022-10-07T01:23:03.747Z,3.03
2022-10-07T01:26:23.852Z,3.40
2022-10-07T01:29:11.219Z,3.43
2022-10-07T01:31:51.980Z,3.40
2022-10-07T01:34:23.462Z,3.60
2022-10-07T01:36:56.951Z,3.60
2022-10-07T01:39:33.705Z,3.50
2022-10-07T01:42:00.889Z,3.90
2022-10-07T01:44:30.249Z,4.00
2022-10-07T01:46:59.285Z,3.70
2022-10-07T01:49:26.707Z,3.77
2022-10-07T01:53:02.432Z,3.40
2022-10-07T01:56:11.992Z,3.87
2022-10-07T01:59:34.873Z,3.37
2022-10-07T02:02:35.326Z,3.93
2022-10-07T02:06:05.719Z,3.50
2022-10-07T02:08:45.634Z,3.60
2022-10-07T02:11:27.773Z,4.10
2022-10-07T02:14:26.597Z,3.90
2022-10-07T02:17:14.113Z,3.30
2022-10-07T02:19:49.639Z,3.37
2022-10-07T02:22:20.751Z,4.10
2022-10-07T02:24:54.415Z,3.40
2022-10-07T02:27:31.372Z,3.90
2022-10-07T02:30:18.501Z,4.10
2022-10-07T02:32:55.800Z,3.33
2022-10-07T02:35:49.684Z,3.60
2022-10-07T02:38:18.459Z,3.37
2022-10-07T02:41:31.410Z,3.77
2022-10-07T02:44:28.928Z,3.63
2022-10-07T02:47:21.987Z,3.73
2022-10-07T02:49:53.371Z,3.53
2022-10-07T02:52:23.091Z,3.93
2022-10-07T02:55:14.595Z,4.07
2022-10-07T02:57:47.499Z,3.67
2022-10-07T03:00:17.106Z,3.57
2022-10-07T03:02:54.487Z,4.07
2022-10-07T03:05:26.297Z,3.30
2022-10-07T03:08:16.518Z,3.50
2022-10-07T03:10:44.034Z,4.20
2022-10-07T03:13:15.458Z,3.90
2022-10-07T03:15:47.356Z,3.90
2022-10-07T03:18:28.193Z,3.67
2022-10-07T03:21:06.193Z,3.83
2022-10-07T03:23:33.442Z,3.80
2022-10-07T03:26:00.965Z,3.70
2022-10-07T03:28:31.232Z,3.73
2022-10-07T03:31:08.696Z,3.77
2022-10-07T03:33:39.023Z,3.43
2022-10-07T03:36:09.185Z,3.30
2022-10-07T03:38:37.847Z,3.80
2022-10-07T03:41:06.225Z,3.20
2022-10-07T03:43:34.687Z,3.67
2022-10-07T03:46:04.333Z,3.47
2022-10-07T03:48:33.948Z,3.30
2022-10-07T03:51:02.179Z,3.63
2022-10-07T03:53:32.397Z,3.83
2022-10-07T03:56:01.221Z,3.57
2022-10-07T03:58:31.592Z,2.73
2022-10-07T04:01:08.566Z,3.50
2022-10-07T04:03:37.697Z,3.33
2022-10-07T04:06:05.607Z,3.50
2022-10-07T04:08:34.832Z,3.90
2022-10-07T04:11:04.048Z,3.77
2022-10-07T04:13:34.031Z,2.80
2022-10-07T04:16:09.308Z,2.97
2022-10-07T04:18:37.696Z,3.10
2022-10-07T04:21:05.295Z,3.10
2022-10-07T04:23:35.102Z,3.43
2022-10-07T04:26:06.439Z,3.53
2022-10-07T04:28:33.367Z,2.90
2022-10-07T04:31:12.001Z,3.43
2022-10-07T04:33:46.501Z,3.00
2022-10-07T04:36:18.828Z,3.70
2022-10-07T04:38:51.528Z,2.90
2022-10-07T04:41:22.962Z,3.10
2022-10-07T04:43:57.396Z,3.20
2022-10-07T04:46:28.250Z,2.57
2022-10-07T04:49:00.969Z,2.87
2022-10-07T04:51:31.250Z,3.10
2022-10-07T04:54:00.242Z,3.27
2022-10-07T04:56:39.586Z,2.70
2022-10-07T04:59:11.290Z,2.97
2022-10-07T05:01:39.268Z,2.63
2022-10-07T05:04:06.416Z,2.70
2022-10-07T05:06:33.823Z,2.70
2022-10-07T05:09:01.041Z,2.70
2022-10-07T05:11:31.653Z,2.73
2022-10-07T05:14:05.652Z,2.57
2022-10-07T05:16:33.109Z,2.50
2022-10-07T05:19:00.039Z,2.73
2022-10-07T05:21:27.700Z,2.93
2022-10-07T05:23:54.559Z,2.97
2022-10-07T05:26:27.852Z,2.50
2022-10-07T05:28:58.722Z,2.93
2022-10-07T05:31:32.601Z,3.27
2022-10-07T05:34:02.892Z,2.60
2022-10-07T05:36:30.873Z,3.03
2022-10-07T05:39:00.117Z,3.67
2022-10-07T05:41:45.326Z,2.87
2022-10-07T05:44:14.747Z,3.10
2022-10-07T05:46:42.403Z,2.23
2022-10-07T05:49:09.935Z,2.67
2022-10-07T05:51:37.358Z,2.73
2022-10-07T05:54:05.889Z,2.50
2022-10-07T05:56:37.601Z,3.10
2022-10-07T05:59:05.155Z,2.40
2022-10-07T06:01:32.520Z,2.60
2022-10-07T06:04:05.599Z,2.50
2022-10-07T06:06:35.547Z,2.50
2022-10-07T06:09:25.967Z,2.20
2022-10-07T06:12:11.858Z,3.60
2022-10-07T06:14:39.778Z,2.70
2022-10-07T06:17:08.208Z,2.70
2022-10-07T06:19:37.918Z,3.00
2022-10-07T06:22:05.309Z,2.93
2022-10-07T06:24:35.148Z,2.60
2022-10-07T06:27:02.645Z,2.77
2022-10-07T06:29:33.308Z,2.10
2022-10-07T06:32:00.496Z,2.50
2022-10-07T06:34:27.537Z,2.60
2022-10-07T06:36:56.323Z,2.60
2022-10-07T06:39:24.071Z,3.20
2022-10-07T06:41:54.438Z,2.90
2022-10-07T06:44:39.818Z,2.77
2022-10-07T06:47:11.877Z,2.30
2022-10-07T06:49:41.189Z,2.57
2022-10-07T06:52:08.268Z,2.63
2022-10-07T06:54:36.132Z,2.90
2022-10-07T06:57:20.468Z,2.87
2022-10-07T06:59:54.940Z,2.83
2022-10-07T07:02:22.174Z,2.57
2022-10-07T07:04:51.137Z,2.73
2022-10-07T07:07:24.437Z,2.70
2022-10-07T07:09:52.291Z,2.90
2022-10-07T07:12:22.644Z,2.67
2022-10-07T07:14:50.373Z,2.50
2022-10-07T07:17:19.116Z,2.73
2022-10-07T07:19:46.074Z,3.00
2022-10-07T07:22:13.028Z,2.70
2022-10-07T07:24:42.217Z,3.07
2022-10-07T07:27:09.395Z,2.80
2022-10-07T07:29:37.472Z,3.00
2022-10-07T07:32:04.585Z,3.13
2022-10-07T07:34:38.038Z,2.77
2022-10-07T07:37:07.852Z,3.33
2022-10-07T07:39:40.833Z,3.20
2022-10-07T07:42:10.862Z,2.73
2022-10-07T07:44:40.086Z,2.83
2022-10-07T07:47:10.663Z,2.90
2022-10-07T07:49:39.578Z,2.63
2022-10-07T07:52:10.090Z,3.13
2022-10-07T07:54:42.708Z,3.00
2022-10-07T07:57:11.195Z,2.93
2022-10-07T07:59:38.971Z,2.63
2022-10-07T08:02:07.948Z,3.53
2022-10-07T08:04:37.634Z,2.77
2022-10-07T08:07:05.249Z,2.37
2022-10-07T08:09:32.142Z,3.00
2022-10-07T08:12:03.007Z,2.80
2022-10-07T08:14:31.184Z,2.57
2022-10-07T08:16:59.194Z,2.87
2022-10-07T08:19:31.449Z,2.60
2022-10-07T08:22:01.166Z,2.30
2022-10-07T08:24:31.826Z,2.70
2022-10-07T08:27:01.854Z,2.80
2022-10-07T08:29:31.347Z,2.60
2022-10-07T08:31:59.005Z,2.10
2022-10-07T08:34:26.239Z,2.47
2022-10-07T08:36:53.106Z,2.60
2022-10-07T08:39:19.925Z,2.70
2022-10-07T08:42:15.157Z,2.60
2022-10-07T08:44:46.683Z,2.43
2022-10-07T08:47:41.530Z,2.23
2022-10-07T08:50:19.116Z,2.17
2022-10-07T08:53:12.831Z,2.43
2022-10-07T08:55:49.664Z,2.27
2022-10-07T08:58:33.743Z,1.90
2022-10-07T09:01:40.781Z,2.90
2022-10-07T09:04:28.141Z,1.80
2022-10-07T09:07:31.331Z,2.10
2022-10-07T09:10:23.879Z,2.20
2022-10-07T09:13:03.523Z,2.17
2022-10-07T09:15:52.669Z,1.90
2022-10-07T09:18:53.894Z,1.92
2022-10-07T09:21:36.840Z,2.20
2022-10-07T09:24:34.886Z,1.75
2022-10-07T09:27:12.651Z,2.13
2022-10-07T09:29:39.803Z,1.90
2022-10-07T09:32:06.756Z,2.28
2022-10-07T09:34:33.735Z,1.73
2022-10-07T09:37:27.525Z,2.15
2022-10-07T09:40:16.532Z,2.40
2022-10-07T09:42:45.694Z,2.10
2022-10-07T09:45:32.368Z,2.28
2022-10-07T09:48:07.678Z,2.00
2022-10-07T09:50:42.564Z,2.25
2022-10-07T09:53:27.914Z,2.28
2022-10-07T09:55:55.444Z,2.10
2022-10-07T09:58:26.427Z,2.58
2022-10-07T10:01:00.898Z,1.80
2022-10-07T10:03:35.122Z,2.00
2022-10-07T10:06:08.770Z,1.65
2022-10-07T10:08:43.025Z,2.40
2022-10-07T10:11:28.236Z,1.77
2022-10-07T10:13:55.447Z,2.10
2022-10-07T10:16:25.892Z,2.33
2022-10-07T10:19:04.655Z,1.88
2022-10-07T10:21:40.789Z,1.92
2022-10-07T10:24:16.002Z,1.60
2022-10-07T10:27:00.043Z,1.85
2022-10-07T10:29:49.727Z,1.80
2022-10-07T10:32:53.040Z,1.88
2022-10-07T10:35:34.586Z,1.77
2022-10-07T10:38:36.419Z,1.58
2022-10-07T10:41:45.810Z,1.80
2022-10-07T10:44:36.026Z,2.22
2022-10-07T10:47:24.909Z,1.92
2022-10-07T10:50:10.243Z,1.98
2022-10-07T10:53:32.068Z,2.00
2022-10-07T10:56:34.214Z,2.10
2022-10-07T10:59:40.042Z,1.85
2022-10-07T11:02:33.147Z,1.92
2022-10-07T11:05:13.231Z,1.67
2022-10-07T11:07:50.952Z,1.85
2022-10-07T11:10:22.500Z,1.75
2022-10-07T11:13:13.138Z,1.83
2022-10-07T11:15:47.946Z,2.05
2022-10-07T11:18:32.744Z,2.20
2022-10-07T11:21:03.958Z,2.25
2022-10-07T11:23:48.218Z,1.85
2022-10-07T11:26:23.516Z,1.90
2022-10-07T11:28:51.863Z,2.00
2022-10-07T11:31:43.847Z,2.10
2022-10-07T11:34:40.447Z,1.75
2022-10-07T11:37:45.279Z,1.95
2022-10-07T11:40:12.260Z,1.60
2022-10-07T11:42:47.378Z,2.00
2022-10-07T11:45:33.895Z,1.70
2022-10-07T11:48:08.295Z,1.75
2022-10-07T11:50:55.739Z,1.85
2022-10-07T11:53:28.418Z,2.17
2022-10-07T11:56:13.183Z,1.80
2022-10-07T11:58:40.435Z,1.67
2022-10-07T12:01:25.680Z,1.75
2022-10-07T12:04:15.373Z,1.55
2022-10-07T12:07:31.986Z,1.67
2022-10-07T12:10:05.828Z,1.58
2022-10-07T12:12:46.566Z,1.58
2022-10-07T12:15:45.038Z,1.70
2022-10-07T12:18:28.337Z,2.05
2022-10-07T12:21:04.512Z,1.50
2022-10-07T12:23:40.495Z,1.67
2022-10-07T12:26:34.799Z,1.65
2022-10-07T12:29:03.724Z,1.73
2022-10-07T12:31:46.849Z,1.80
2022-10-07T12:34:37.217Z,1.35
2022-10-07T12:37:41.079Z,2.10
2022-10-07T12:40:18.449Z,2.08
2022-10-07T12:42:55.889Z,1.75
2022-10-07T12:45:27.874Z,1.60
2022-10-07T12:47:59.508Z,1.58
2022-10-07T12:50:31.742Z,1.60
2022-10-07T12:53:03.151Z,1.77
2022-10-07T12:55:41.834Z,1.70
2022-10-07T12:59:24.193Z,1.40
2022-10-07T13:02:23.043Z,1.73
2022-10-07T13:05:23.121Z,1.80
2022-10-07T13:08:15.092Z,1.67
2022-10-07T13:11:36.285Z,1.73
2022-10-07T13:14:19.292Z,1.60
2022-10-07T13:17:17.501Z,1.63
2022-10-07T13:20:26.057Z,1.63
2022-10-07T13:22:53.226Z,1.65
2022-10-07T13:25:22.088Z,1.60
2022-10-07T13:27:55.906Z,1.67
2022-10-07T13:30:38.858Z,1.88
2022-10-07T13:33:26.338Z,1.60
2022-10-07T13:36:15.855Z,1.75
2022-10-07T13:38:47.865Z,1.40
2022-10-07T13:41:32.747Z,1.90
2022-10-07T13:44:04.754Z,1.58
2022-10-07T13:46:35.960Z,1.60
2022-10-07T13:49:04.009Z,1.90
2022-10-07T13:51:41.462Z,1.92
2022-10-07T13:54:21.816Z,1.52
2022-10-07T13:56:50.380Z,1.73
2022-10-07T13:59:19.515Z,1.40
2022-10-07T14:01:53.761Z,1.48
2022-10-07T14:04:26.022Z,1.40
2022-10-07T14:06:59.327Z,1.50
2022-10-07T14:09:32.289Z,1.85
2022-10-07T14:12:09.030Z,1.67
2022-10-07T14:14:41.209Z,1.95
2022-10-07T14:17:22.892Z,1.70
2022-10-07T14:19:57.908Z,1.80
2022-10-07T14:22:38.927Z,1.40
2022-10-07T14:25:19.131Z,1.33
2022-10-07T14:28:20.078Z,1.80
2022-10-07T14:31:26.805Z,1.60
2022-10-07T14:34:38.462Z,1.80
2022-10-07T14:37:16.978Z,1.30
2022-10-07T14:39:49.664Z,1.80
2022-10-07T14:42:32.821Z,1.42
2022-10-07T14:45:05.073Z,1.35
2022-10-07T14:47:37.842Z,1.70
2022-10-07T14:50:05.640Z,1.70
2022-10-07T14:52:52.705Z,1.50
2022-10-07T14:55:26.509Z,1.33
2022-10-07T14:57:54.631Z,1.63
2022-10-07T15:00:29.651Z,1.48
2022-10-07T15:02:56.792Z,1.63
2022-10-07T15:05:24.488Z,1.65
2022-10-07T15:07:51.660Z,1.60
2022-10-07T15:10:26.198Z,1.83
2022-10-07T15:12:55.936Z,1.73
2022-10-07T15:15:22.777Z,1.38
2022-10-07T15:17:49.650Z,1.70
2022-10-07T15:20:17.341Z,2.00
2022-10-07T15:22:45.786Z,1.58
2022-10-07T15:25:15.232Z,1.70
2022-10-07T15:27:42.502Z,1.60
2022-10-07T15:30:10.518Z,1.30
2022-10-07T15:32:37.587Z,1.73
2022-10-07T15:35:06.230Z,1.73
2022-10-07T15:37:33.510Z,1.27
2022-10-07T15:40:00.566Z,1.40
2022-10-07T15:42:27.465Z,1.50
2022-10-07T15:44:54.392Z,1.30
2022-10-07T15:47:21.659Z,1.50
2022-10-07T15:49:49.502Z,1.20
2022-10-07T15:52:19.549Z,1.70
2022-10-07T15:54:46.517Z,1.33
2022-10-07T15:57:14.212Z,1.52
2022-10-07T15:59:42.185Z,1.60
2022-10-07T16:02:16.341Z,1.63
2022-10-07T16:04:45.462Z,1.83
2022-10-07T16:07:12.340Z,1.58
2022-10-07T16:09:39.910Z,1.63
2022-10-07T16:12:08.843Z,1.63
2022-10-07T16:14:35.889Z,1.40
2022-10-07T16:17:02.903Z,1.58
2022-10-07T16:19:30.003Z,1.92
2022-10-07T16:21:57.013Z,1.40
2022-10-07T16:24:28.258Z,1.88
2022-10-07T16:27:00.822Z,1.60
2022-10-07T16:29:46.123Z,1.60
2022-10-07T16:32:13.232Z,1.77
2022-10-07T16:34:43.385Z,1.67
2022-10-07T16:37:11.769Z,1.80
2022-10-07T16:39:38.795Z,1.70
2022-10-07T16:42:06.090Z,1.65
2022-10-07T16:44:33.120Z,1.80
2022-10-07T16:47:00.286Z,1.83
2022-10-07T16:49:29.524Z,2.05
2022-10-07T16:52:02.054Z,1.98
2022-10-07T16:54:33.532Z,1.80
2022-10-07T16:57:00.490Z,2.15
2022-10-07T16:59:27.379Z,2.22
2022-10-07T17:01:56.617Z,2.28
2022-10-07T17:04:25.294Z,2.20
2022-10-07T17:06:56.147Z,2.00
2022-10-07T17:09:25.175Z,2.22
2022-10-07T17:11:52.477Z,2.03
2022-10-07T17:14:21.547Z,2.08
2022-10-07T17:17:01.673Z,2.22
2022-10-07T17:19:31.720Z,2.28
2022-10-07T17:22:01.385Z,1.80
2022-10-07T17:24:28.351Z,2.20
2022-10-07T17:26:56.173Z,1.95
2022-10-07T17:29:25.931Z,1.90
2022-10-07T17:31:53.394Z,2.27
2022-10-07T17:34:21.417Z,1.77
2022-10-07T17:36:50.088Z,1.77
2022-10-07T17:39:19.040Z,2.50
2022-10-07T17:41:46.343Z,1.73
2022-10-07T17:44:13.767Z,1.70
2022-10-07T17:46:41.993Z,2.20
2022-10-07T17:49:13.424Z,2.13
2022-10-07T17:51:42.588Z,2.23
2022-10-07T17:54:13.492Z,2.77
2022-10-07T17:56:43.369Z,2.67
2022-10-07T17:59:10.255Z,2.97
2022-10-07T18:01:37.668Z,3.93
2022-10-07T18:04:09.572Z,3.83
2022-10-07T18:06:39.551Z,4.50
2022-10-07T18:09:09.205Z,3.97
2022-10-07T18:11:55.178Z,4.27
2022-10-07T18:14:41.681Z,4.20
2022-10-07T18:17:10.810Z,4.00
2022-10-07T18:19:39.683Z,3.30
2022-10-07T18:22:11.518Z,3.20
2022-10-07T18:24:39.326Z,2.60
2022-10-07T18:27:06.406Z,3.10
2022-10-07T18:29:38.403Z,2.73
2022-10-07T18:32:07.195Z,2.80
2022-10-07T18:34:34.486Z,2.60
2022-10-07T18:37:01.839Z,2.40
2022-10-07T18:39:32.432Z,2.57
2022-10-07T18:41:59.629Z,2.60
2022-10-07T18:44:27.389Z,2.60
2022-10-07T18:46:55.080Z,2.60
2022-10-07T18:49:22.446Z,3.03
2022-10-07T18:51:50.963Z,2.47
2022-10-07T18:54:21.074Z,2.50
2022-10-07T18:56:49.824Z,2.30
2022-10-07T18:59:19.421Z,2.47
2022-10-07T19:01:50.666Z,2.33
2022-10-07T19:04:18.667Z,2.47
2022-10-07T19:06:46.215Z,2.50
2022-10-07T19:09:20.786Z,1.87
2022-10-07T19:11:48.501Z,2.60
2022-10-07T19:14:16.223Z,1.80
2022-10-07T19:16:48.990Z,2.20
2022-10-07T19:19:22.502Z,2.90
2022-10-07T19:21:54.430Z,2.20
2022-10-07T19:24:41.936Z,2.40
2022-10-07T19:27:08.992Z,2.93
2022-10-07T19:29:35.884Z,2.40
2022-10-07T19:32:07.893Z,2.20
2022-10-07T19:34:36.126Z,2.20
2022-10-07T19:37:03.669Z,2.30
2022-10-07T19:39:34.131Z,2.20
2022-10-07T19:42:01.081Z,2.60
2022-10-07T19:44:28.034Z,2.13
2022-10-07T19:46:58.173Z,2.10
2022-10-07T19:49:25.244Z,2.67
2022-10-07T19:51:53.377Z,2.73
2022-10-07T19:54:20.699Z,2.80
2022-10-07T19:56:50.492Z,2.27
2022-10-07T19:59:17.781Z,2.60
2022-10-07T20:01:47.394Z,2.73
2022-10-07T20:04:20.884Z,2.60
2022-10-07T20:06:49.938Z,2.80
2022-10-07T20:09:18.868Z,2.73
2022-10-07T20:11:49.462Z,2.37
2022-10-07T20:14:16.561Z,2.20
2022-10-07T20:16:44.076Z,2.47
2022-10-07T20:19:19.311Z,2.37
2022-10-07T20:21:46.795Z,2.57
2022-10-07T20:24:18.488Z,2.23
2022-10-07T20:26:45.673Z,2.20
2022-10-07T20:29:15.205Z,2.47
2022-10-07T20:31:43.375Z,2.30
2022-10-07T20:34:15.835Z,2.20
2022-10-07T20:36:43.831Z,2.10
2022-10-07T20:39:38.609Z,2.63
2022-10-07T20:42:22.355Z,2.30
2022-10-07T20:44:50.561Z,2.10
2022-10-07T20:47:19.590Z,2.50
2022-10-07T20:49:48.511Z,2.77
2022-10-07T20:52:22.079Z,2.03
2022-10-07T20:54:49.955Z,2.30
2022-10-07T20:57:33.805Z,2.60
2022-10-07T21:00:00.771Z,2.20
2022-10-07T21:02:28.395Z,2.47
2022-10-07T21:04:55.442Z,2.40
2022-10-07T21:07:22.420Z,2.63
2022-10-07T21:09:49.433Z,2.30
2022-10-07T21:12:18.232Z,2.30
2022-10-07T21:14:47.992Z,2.33
2022-10-07T21:17:15.872Z,2.17
2022-10-07T21:19:42.855Z,2.20
2022-10-07T21:22:10.030Z,2.30
2022-10-07T21:24:37.050Z,2.60
2022-10-07T21:27:07.093Z,2.23
2022-10-07T21:29:40.124Z,2.47
2022-10-07T21:32:10.460Z,1.90
2022-10-07T21:34:38.409Z,2.10
2022-10-07T21:37:06.486Z,2.33
2022-10-07T21:39:33.579Z,2.97
2022-10-07T21:42:00.533Z,2.43
2022-10-07T21:44:28.038Z,2.27
2022-10-07T21:46:55.496Z,2.13
2022-10-07T21:49:23.071Z,2.10
2022-10-07T21:51:53.051Z,2.30
2022-10-07T21:54:20.393Z,2.03
2022-10-07T21:56:47.699Z,2.27
2022-10-07T21:59:14.787Z,2.13
2022-10-07T22:01:43.123Z,2.20
2022-10-07T22:04:17.678Z,2.40
2022-10-07T22:07:04.623Z,1.97
2022-10-07T22:09:31.752Z,1.60
2022-10-07T22:11:59.253Z,2.20
2022-10-07T22:14:27.567Z,2.20
2022-10-07T22:16:54.527Z,2.70
2022-10-07T22:19:22.902Z,1.93
2022-10-07T22:21:49.788Z,1.70
2022-10-07T22:24:16.933Z,1.90
2022-10-07T22:26:47.678Z,2.47
2022-10-07T22:29:16.951Z,2.10
2022-10-07T22:31:44.947Z,2.37
2022-10-07T22:34:32.195Z,2.23
2022-10-07T22:36:59.400Z,2.10
2022-10-07T22:39:28.572Z,2.50
2022-10-07T22:41:56.714Z,2.10
2022-10-07T22:44:28.220Z,2.47
2022-10-07T22:46:56.944Z,1.87
2022-10-07T22:49:28.727Z,1.83
2022-10-07T22:51:58.953Z,2.03
2022-10-07T22:54:26.226Z,2.07
2022-10-07T22:56:53.023Z,2.27
2022-10-07T22:59:21.151Z,2.60
2022-10-07T23:01:48.103Z,2.87
2022-10-07T23:04:15.013Z,1.97
2022-10-07T23:06:41.840Z,2.03
2022-10-07T23:09:09.879Z,1.87
2022-10-07T23:11:36.861Z,2.20
2022-10-07T23:14:05.287Z,2.37
2022-10-07T23:16:35.333Z,2.20
2022-10-07T23:19:02.234Z,2.60
2022-10-07T23:21:33.942Z,1.97
2022-10-07T23:24:06.891Z,2.13
2022-10-07T23:26:35.174Z,2.10
2022-10-07T23:29:03.149Z,1.77
2022-10-07T23:31:32.752Z,2.30
2022-10-07T23:34:03.026Z,1.90
2022-10-07T23:36:31.447Z,2.00
2022-10-07T23:39:00.581Z,1.93
2022-10-07T23:41:30.663Z,1.73
2022-10-07T23:44:00.287Z,2.20
2022-10-07T23:46:28.782Z,1.77
2022-10-07T23:48:56.087Z,1.70
2022-10-07T23:51:27.093Z,2.00
2022-10-07T23:53:56.705Z,2.33
2022-10-07T23:56:23.632Z,2.13
2022-10-07T23:58:50.426Z,2.10
